sensor_id;sensor_type;location;lat;lon;timestamp;P1;durP1;ratioP1;P2;durP2;ratioP2
77220;SDS011;66217;50.004;8.266;2023-03-18T00:00:38;14.10;;;8.50;;
77220;SDS011;66217;50.004;8.266;2023-03-18T00:03:04;19.17;;;9.30;;
77220;SDS011;66217;50.004;8.266;2023-03-18T00:05:31;17.20;;;9.40;;
77220;SDS011;66217;50.004;8.266;2023-03-18T00:07:58;18.35;;;8.48;;
77220;SDS011;66217;50.004;8.266;2023-03-18T00:10:24;17.15;;;7.95;;
77220;SDS011;66217;50.004;8.266;2023-03-18T00:12:50;20.83;;;9.13;;
77220;SDS011;66217;50.004;8.266;2023-03-18T00:15:17;14.07;;;9.02;;
77220;SDS011;66217;50.004;8.266;2023-03-18T00:17:43;19.10;;;9.13;;
77220;SDS011;66217;50.004;8.266;2023-03-18T00:20:10;18.38;;;9.18;;
77220;SDS011;66217;50.004;8.266;2023-03-18T00:22:37;17.83;;;8.50;;
77220;SDS011;66217;50.004;8.266;2023-03-18T00:25:04;18.25;;;8.32;;
77220;SDS011;66217;50.004;8.266;2023-03-18T00:27:31;16.55;;;7.65;;
77220;SDS011;66217;50.004;8.266;2023-03-18T00:29:57;22.13;;;7.65;;
77220;SDS011;66217;50.004;8.266;2023-03-18T00:32:24;14.23;;;7.57;;
77220;SDS011;66217;50.004;8.266;2023-03-18T00:34:50;20.10;;;8.65;;
77220;SDS011;66217;50.004;8.266;2023-03-18T00:37:16;17.55;;;8.02;;
77220;SDS011;66217;50.004;8.266;2023-03-18T00:39:54;14.57;;;7.45;;
77220;SDS011;66217;50.004;8.266;2023-03-18T00:42:21;14.35;;;8.10;;
77220;SDS011;66217;50.004;8.266;2023-03-18T00:44:47;18.42;;;8.60;;
77220;SDS011;66217;50.004;8.266;2023-03-18T00:47:13;17.67;;;8.65;;
77220;SDS011;66217;50.004;8.266;2023-03-18T00:49:38;18.98;;;9.02;;
77220;SDS011;66217;50.004;8.266;2023-03-18T00:52:04;17.23;;;8.88;;
77220;SDS011;66217;50.004;8.266;2023-03-18T00:54:29;14.10;;;8.38;;
77220;SDS011;66217;50.004;8.266;2023-03-18T00:56:55;15.23;;;8.27;;
77220;SDS011;66217;50.004;8.266;2023-03-18T00:59:22;16.65;;;8.18;;
77220;SDS011;66217;50.004;8.266;2023-03-18T01:01:48;12.38;;;7.32;;
77220;SDS011;66217;50.004;8.266;2023-03-18T01:04:14;18.10;;;7.78;;
77220;SDS011;66217;50.004;8.266;2023-03-18T01:06:40;14.57;;;7.82;;
77220;SDS011;66217;50.004;8.266;2023-03-18T01:09:07;14.98;;;7.63;;
77220;SDS011;66217;50.004;8.266;2023-03-18T01:11:34;12.57;;;7.40;;
77220;SDS011;66217;50.004;8.266;2023-03-18T01:14:00;18.23;;;7.40;;
77220;SDS011;66217;50.004;8.266;2023-03-18T01:16:26;15.93;;;7.82;;
77220;SDS011;66217;50.004;8.266;2023-03-18T01:18:52;14.30;;;8.43;;
77220;SDS011;66217;50.004;8.266;2023-03-18T01:21:18;12.27;;;8.30;;
77220;SDS011;66217;50.004;8.266;2023-03-18T01:23:49;17.13;;;7.57;;
77220;SDS011;66217;50.004;8.266;2023-03-18T01:26:17;18.50;;;7.40;;
77220;SDS011;66217;50.004;8.266;2023-03-18T01:28:44;17.48;;;8.30;;
77220;SDS011;66217;50.004;8.266;2023-03-18T01:31:10;18.90;;;7.78;;
77220;SDS011;66217;50.004;8.266;2023-03-18T01:33:37;13.60;;;7.80;;
77220;SDS011;66217;50.004;8.266;2023-03-18T01:36:02;12.13;;;7.57;;
77220;SDS011;66217;50.004;8.266;2023-03-18T01:38:31;15.90;;;7.82;;
77220;SDS011;66217;50.004;8.266;2023-03-18T01:41:05;15.77;;;7.97;;
77220;SDS011;66217;50.004;8.266;2023-03-18T01:43:32;14.45;;;7.88;;
77220;SDS011;66217;50.004;8.266;2023-03-18T01:46:00;13.05;;;7.93;;
77220;SDS011;66217;50.004;8.266;2023-03-18T01:48:28;15.50;;;7.72;;
77220;SDS011;66217;50.004;8.266;2023-03-18T01:51:02;13.07;;;7.25;;
77220;SDS011;66217;50.004;8.266;2023-03-18T01:53:33;21.35;;;8.20;;
77220;SDS011;66217;50.004;8.266;2023-03-18T01:56:03;17.95;;;8.10;;
77220;SDS011;66217;50.004;8.266;2023-03-18T01:58:33;16.85;;;8.32;;
77220;SDS011;66217;50.004;8.266;2023-03-18T02:04:16;19.55;;;9.40;;
77220;SDS011;66217;50.004;8.266;2023-03-18T02:06:43;15.93;;;8.93;;
77220;SDS011;66217;50.004;8.266;2023-03-18T02:09:09;18.27;;;9.80;;
77220;SDS011;66217;50.004;8.266;2023-03-18T02:11:37;18.42;;;9.57;;
77220;SDS011;66217;50.004;8.266;2023-03-18T02:14:05;17.70;;;10.10;;
77220;SDS011;66217;50.004;8.266;2023-03-18T02:16:40;17.30;;;9.85;;
77220;SDS011;66217;50.004;8.266;2023-03-18T02:22:55;20.50;;;10.30;;
77220;SDS011;66217;50.004;8.266;2023-03-18T02:27:55;17.75;;;10.10;;
77220;SDS011;66217;50.004;8.266;2023-03-18T02:30:27;14.93;;;9.38;;
77220;SDS011;66217;50.004;8.266;2023-03-18T02:32:57;16.40;;;9.52;;
77220;SDS011;66217;50.004;8.266;2023-03-18T02:35:23;16.42;;;9.73;;
77220;SDS011;66217;50.004;8.266;2023-03-18T02:37:51;19.35;;;10.23;;
77220;SDS011;66217;50.004;8.266;2023-03-18T02:40:25;16.63;;;9.55;;
77220;SDS011;66217;50.004;8.266;2023-03-18T02:42:56;18.08;;;9.63;;
77220;SDS011;66217;50.004;8.266;2023-03-18T02:45:39;14.63;;;9.30;;
77220;SDS011;66217;50.004;8.266;2023-03-18T02:48:14;15.20;;;10.02;;
77220;SDS011;66217;50.004;8.266;2023-03-18T02:50:42;15.85;;;9.65;;
77220;SDS011;66217;50.004;8.266;2023-03-18T02:53:09;18.77;;;9.82;;
77220;SDS011;66217;50.004;8.266;2023-03-18T02:55:36;17.50;;;9.40;;
77220;SDS011;66217;50.004;8.266;2023-03-18T02:58:01;17.27;;;9.68;;
77220;SDS011;66217;50.004;8.266;2023-03-18T03:00:27;16.80;;;9.57;;
77220;SDS011;66217;50.004;8.266;2023-03-18T03:02:52;20.30;;;9.57;;
77220;SDS011;66217;50.004;8.266;2023-03-18T03:05:18;18.75;;;9.75;;
77220;SDS011;66217;50.004;8.266;2023-03-18T03:07:44;16.35;;;8.70;;
77220;SDS011;66217;50.004;8.266;2023-03-18T03:10:11;15.70;;;9.02;;
77220;SDS011;66217;50.004;8.266;2023-03-18T03:12:38;15.73;;;9.75;;
77220;SDS011;66217;50.004;8.266;2023-03-18T03:15:06;14.68;;;9.23;;
77220;SDS011;66217;50.004;8.266;2023-03-18T03:17:34;19.13;;;9.98;;
77220;SDS011;66217;50.004;8.266;2023-03-18T03:20:00;17.17;;;9.88;;
77220;SDS011;66217;50.004;8.266;2023-03-18T03:22:26;19.75;;;9.85;;
77220;SDS011;66217;50.004;8.266;2023-03-18T03:24:52;18.23;;;9.18;;
77220;SDS011;66217;50.004;8.266;2023-03-18T03:27:18;14.38;;;9.10;;
77220;SDS011;66217;50.004;8.266;2023-03-18T03:29:43;19.45;;;9.88;;
77220;SDS011;66217;50.004;8.266;2023-03-18T03:32:10;18.27;;;10.45;;
77220;SDS011;66217;50.004;8.266;2023-03-18T03:34:36;15.13;;;9.00;;
77220;SDS011;66217;50.004;8.266;2023-03-18T03:37:01;17.40;;;9.57;;
77220;SDS011;66217;50.004;8.266;2023-03-18T03:39:27;15.63;;;10.00;;
77220;SDS011;66217;50.004;8.266;2023-03-18T03:41:52;21.70;;;9.80;;
77220;SDS011;66217;50.004;8.266;2023-03-18T03:44:18;15.98;;;9.02;;
77220;SDS011;66217;50.004;8.266;2023-03-18T03:46:47;18.50;;;9.80;;
77220;SDS011;66217;50.004;8.266;2023-03-18T03:49:12;18.30;;;9.70;;
77220;SDS011;66217;50.004;8.266;2023-03-18T03:51:38;19.10;;;9.40;;
77220;SDS011;66217;50.004;8.266;2023-03-18T03:54:04;23.23;;;10.05;;
77220;SDS011;66217;50.004;8.266;2023-03-18T03:56:29;17.15;;;9.43;;
77220;SDS011;66217;50.004;8.266;2023-03-18T03:58:56;18.85;;;10.43;;
77220;SDS011;66217;50.004;8.266;2023-03-18T04:01:27;17.25;;;9.98;;
77220;SDS011;66217;50.004;8.266;2023-03-18T04:03:55;18.35;;;9.65;;
77220;SDS011;66217;50.004;8.266;2023-03-18T04:06:20;16.90;;;9.73;;
77220;SDS011;66217;50.004;8.266;2023-03-18T04:08:55;15.40;;;10.32;;
77220;SDS011;66217;50.004;8.266;2023-03-18T04:11:20;16.98;;;9.80;;
77220;SDS011;66217;50.004;8.266;2023-03-18T04:13:46;28.15;;;10.93;;
77220;SDS011;66217;50.004;8.266;2023-03-18T04:16:11;17.48;;;10.07;;
77220;SDS011;66217;50.004;8.266;2023-03-18T04:18:38;22.15;;;10.43;;
77220;SDS011;66217;50.004;8.266;2023-03-18T04:21:05;18.10;;;10.27;;
77220;SDS011;66217;50.004;8.266;2023-03-18T04:23:41;24.08;;;10.00;;
77220;SDS011;66217;50.004;8.266;2023-03-18T04:26:07;24.05;;;10.70;;
77220;SDS011;66217;50.004;8.266;2023-03-18T04:28:33;21.67;;;11.40;;
77220;SDS011;66217;50.004;8.266;2023-03-18T04:30:59;17.77;;;11.60;;
77220;SDS011;66217;50.004;8.266;2023-03-18T04:33:25;20.13;;;11.25;;
77220;SDS011;66217;50.004;8.266;2023-03-18T04:35:52;22.20;;;11.00;;
77220;SDS011;66217;50.004;8.266;2023-03-18T04:38:18;23.00;;;11.80;;
77220;SDS011;66217;50.004;8.266;2023-03-18T04:40:44;21.40;;;11.43;;
77220;SDS011;66217;50.004;8.266;2023-03-18T04:43:10;24.70;;;10.65;;
77220;SDS011;66217;50.004;8.266;2023-03-18T04:45:35;24.00;;;11.98;;
77220;SDS011;66217;50.004;8.266;2023-03-18T04:48:02;21.90;;;10.68;;
77220;SDS011;66217;50.004;8.266;2023-03-18T04:50:31;14.98;;;10.32;;
77220;SDS011;66217;50.004;8.266;2023-03-18T04:52:57;23.35;;;10.75;;
77220;SDS011;66217;50.004;8.266;2023-03-18T04:55:26;22.80;;;11.85;;
77220;SDS011;66217;50.004;8.266;2023-03-18T04:57:52;22.10;;;11.30;;
77220;SDS011;66217;50.004;8.266;2023-03-18T05:00:21;19.05;;;11.90;;
77220;SDS011;66217;50.004;8.266;2023-03-18T05:02:50;24.00;;;10.80;;
77220;SDS011;66217;50.004;8.266;2023-03-18T05:05:16;20.83;;;11.40;;
77220;SDS011;66217;50.004;8.266;2023-03-18T05:07:46;23.02;;;11.15;;
77220;SDS011;66217;50.004;8.266;2023-03-18T05:10:14;18.02;;;11.35;;
77220;SDS011;66217;50.004;8.266;2023-03-18T05:12:39;20.13;;;11.68;;
77220;SDS011;66217;50.004;8.266;2023-03-18T05:15:08;18.42;;;10.35;;
77220;SDS011;66217;50.004;8.266;2023-03-18T05:17:39;16.55;;;9.77;;
77220;SDS011;66217;50.004;8.266;2023-03-18T05:20:05;16.50;;;10.82;;
77220;SDS011;66217;50.004;8.266;2023-03-18T05:22:31;17.63;;;11.23;;
77220;SDS011;66217;50.004;8.266;2023-03-18T05:25:05;21.33;;;11.68;;
77220;SDS011;66217;50.004;8.266;2023-03-18T05:27:31;19.80;;;10.55;;
77220;SDS011;66217;50.004;8.266;2023-03-18T05:30:03;21.95;;;10.23;;
77220;SDS011;66217;50.004;8.266;2023-03-18T05:32:38;19.00;;;10.32;;
77220;SDS011;66217;50.004;8.266;2023-03-18T05:35:07;19.13;;;11.32;;
77220;SDS011;66217;50.004;8.266;2023-03-18T05:37:41;21.85;;;10.60;;
77220;SDS011;66217;50.004;8.266;2023-03-18T05:40:07;16.50;;;10.05;;
77220;SDS011;66217;50.004;8.266;2023-03-18T05:42:36;17.70;;;10.30;;
77220;SDS011;66217;50.004;8.266;2023-03-18T05:45:03;21.45;;;9.88;;
77220;SDS011;66217;50.004;8.266;2023-03-18T05:47:30;18.50;;;11.57;;
77220;SDS011;66217;50.004;8.266;2023-03-18T05:50:01;18.58;;;11.55;;
77220;SDS011;66217;50.004;8.266;2023-03-18T05:52:27;16.67;;;9.68;;
77220;SDS011;66217;50.004;8.266;2023-03-18T05:54:56;15.25;;;10.00;;
77220;SDS011;66217;50.004;8.266;2023-03-18T05:57:27;19.20;;;9.50;;
77220;SDS011;66217;50.004;8.266;2023-03-18T05:59:57;21.05;;;10.82;;
77220;SDS011;66217;50.004;8.266;2023-03-18T06:02:24;19.30;;;10.45;;
77220;SDS011;66217;50.004;8.266;2023-03-18T06:04:51;17.17;;;10.50;;
77220;SDS011;66217;50.004;8.266;2023-03-18T06:07:16;22.27;;;11.55;;
77220;SDS011;66217;50.004;8.266;2023-03-18T06:09:42;15.77;;;9.75;;
77220;SDS011;66217;50.004;8.266;2023-03-18T06:12:07;16.75;;;11.07;;
77220;SDS011;66217;50.004;8.266;2023-03-18T06:14:32;19.55;;;11.00;;
77220;SDS011;66217;50.004;8.266;2023-03-18T06:17:00;22.75;;;10.95;;
77220;SDS011;66217;50.004;8.266;2023-03-18T06:19:26;18.70;;;11.63;;
77220;SDS011;66217;50.004;8.266;2023-03-18T06:21:52;19.77;;;11.60;;
77220;SDS011;66217;50.004;8.266;2023-03-18T06:24:17;21.33;;;11.20;;
77220;SDS011;66217;50.004;8.266;2023-03-18T06:26:43;17.85;;;11.15;;
77220;SDS011;66217;50.004;8.266;2023-03-18T06:29:09;19.23;;;11.18;;
77220;SDS011;66217;50.004;8.266;2023-03-18T06:31:37;19.33;;;11.88;;
77220;SDS011;66217;50.004;8.266;2023-03-18T06:34:03;22.00;;;11.25;;
77220;SDS011;66217;50.004;8.266;2023-03-18T06:36:32;17.80;;;11.43;;
77220;SDS011;66217;50.004;8.266;2023-03-18T06:38:59;21.17;;;11.95;;
77220;SDS011;66217;50.004;8.266;2023-03-18T06:41:25;24.83;;;11.75;;
77220;SDS011;66217;50.004;8.266;2023-03-18T06:44:11;21.15;;;11.07;;
77220;SDS011;66217;50.004;8.266;2023-03-18T06:46:37;18.95;;;10.48;;
77220;SDS011;66217;50.004;8.266;2023-03-18T06:49:04;24.35;;;12.43;;
77220;SDS011;66217;50.004;8.266;2023-03-18T06:51:34;20.08;;;11.32;;
77220;SDS011;66217;50.004;8.266;2023-03-18T06:53:59;21.67;;;11.25;;
77220;SDS011;66217;50.004;8.266;2023-03-18T06:56:29;22.13;;;11.02;;
77220;SDS011;66217;50.004;8.266;2023-03-18T06:59:02;21.60;;;11.02;;
77220;SDS011;66217;50.004;8.266;2023-03-18T07:01:28;19.77;;;10.90;;
77220;SDS011;66217;50.004;8.266;2023-03-18T07:03:55;18.05;;;11.23;;
77220;SDS011;66217;50.004;8.266;2023-03-18T07:06:22;19.15;;;11.70;;
77220;SDS011;66217;50.004;8.266;2023-03-18T07:08:48;19.55;;;10.73;;
77220;SDS011;66217;50.004;8.266;2023-03-18T07:11:14;20.88;;;11.27;;
77220;SDS011;66217;50.004;8.266;2023-03-18T07:13:42;18.88;;;11.48;;
77220;SDS011;66217;50.004;8.266;2023-03-18T07:16:15;26.33;;;12.18;;
77220;SDS011;66217;50.004;8.266;2023-03-18T07:18:40;19.67;;;12.68;;
77220;SDS011;66217;50.004;8.266;2023-03-18T07:21:07;23.42;;;11.95;;
77220;SDS011;66217;50.004;8.266;2023-03-18T07:23:33;20.35;;;11.50;;
77220;SDS011;66217;50.004;8.266;2023-03-18T07:25:59;19.52;;;11.82;;
77220;SDS011;66217;50.004;8.266;2023-03-18T07:28:24;19.48;;;10.82;;
77220;SDS011;66217;50.004;8.266;2023-03-18T07:30:50;19.98;;;10.95;;
77220;SDS011;66217;50.004;8.266;2023-03-18T07:33:15;20.73;;;11.98;;
77220;SDS011;66217;50.004;8.266;2023-03-18T07:35:41;22.05;;;11.98;;
77220;SDS011;66217;50.004;8.266;2023-03-18T07:38:09;18.73;;;11.27;;
77220;SDS011;66217;50.004;8.266;2023-03-18T07:40:35;25.05;;;12.82;;
77220;SDS011;66217;50.004;8.266;2023-03-18T07:43:02;22.77;;;11.82;;
77220;SDS011;66217;50.004;8.266;2023-03-18T07:45:28;21.00;;;10.38;;
77220;SDS011;66217;50.004;8.266;2023-03-18T07:47:53;23.80;;;12.00;;
77220;SDS011;66217;50.004;8.266;2023-03-18T07:50:19;17.70;;;10.68;;
77220;SDS011;66217;50.004;8.266;2023-03-18T07:52:44;18.48;;;10.60;;
77220;SDS011;66217;50.004;8.266;2023-03-18T07:55:10;20.00;;;10.65;;
77220;SDS011;66217;50.004;8.266;2023-03-18T07:57:36;18.08;;;10.90;;
77220;SDS011;66217;50.004;8.266;2023-03-18T08:00:03;18.15;;;10.05;;
77220;SDS011;66217;50.004;8.266;2023-03-18T08:02:37;19.20;;;8.10;;
77220;SDS011;66217;50.004;8.266;2023-03-18T08:05:03;14.27;;;8.15;;
77220;SDS011;66217;50.004;8.266;2023-03-18T08:07:38;18.40;;;8.88;;
77220;SDS011;66217;50.004;8.266;2023-03-18T08:10:03;16.95;;;9.07;;
77220;SDS011;66217;50.004;8.266;2023-03-18T08:12:29;17.77;;;9.68;;
77220;SDS011;66217;50.004;8.266;2023-03-18T08:14:56;19.42;;;10.38;;
77220;SDS011;66217;50.004;8.266;2023-03-18T08:17:22;16.10;;;8.20;;
77220;SDS011;66217;50.004;8.266;2023-03-18T08:19:47;13.40;;;6.88;;
77220;SDS011;66217;50.004;8.266;2023-03-18T08:22:13;12.52;;;7.00;;
77220;SDS011;66217;50.004;8.266;2023-03-18T08:24:39;16.55;;;8.00;;
77220;SDS011;66217;50.004;8.266;2023-03-18T08:27:05;14.93;;;6.65;;
77220;SDS011;66217;50.004;8.266;2023-03-18T08:29:30;13.93;;;6.63;;
77220;SDS011;66217;50.004;8.266;2023-03-18T08:31:57;15.82;;;6.93;;
77220;SDS011;66217;50.004;8.266;2023-03-18T08:34:23;14.52;;;6.30;;
77220;SDS011;66217;50.004;8.266;2023-03-18T08:36:48;21.35;;;7.00;;
77220;SDS011;66217;50.004;8.266;2023-03-18T08:39:14;10.50;;;6.22;;
77220;SDS011;66217;50.004;8.266;2023-03-18T08:41:40;10.25;;;5.57;;
77220;SDS011;66217;50.004;8.266;2023-03-18T08:44:06;11.45;;;5.30;;
77220;SDS011;66217;50.004;8.266;2023-03-18T08:46:34;11.75;;;4.95;;
77220;SDS011;66217;50.004;8.266;2023-03-18T08:48:59;10.30;;;4.55;;
77220;SDS011;66217;50.004;8.266;2023-03-18T08:51:25;11.88;;;4.60;;
77220;SDS011;66217;50.004;8.266;2023-03-18T08:53:50;6.90;;;4.47;;
77220;SDS011;66217;50.004;8.266;2023-03-18T08:56:16;7.35;;;3.33;;
77220;SDS011;66217;50.004;8.266;2023-03-18T08:58:41;10.63;;;3.75;;
77220;SDS011;66217;50.004;8.266;2023-03-18T09:01:10;5.72;;;3.13;;
77220;SDS011;66217;50.004;8.266;2023-03-18T09:03:36;8.38;;;3.35;;
77220;SDS011;66217;50.004;8.266;2023-03-18T09:06:01;6.28;;;3.00;;
77220;SDS011;66217;50.004;8.266;2023-03-18T09:08:27;6.80;;;3.00;;
77220;SDS011;66217;50.004;8.266;2023-03-18T09:10:55;6.13;;;3.22;;
77220;SDS011;66217;50.004;8.266;2023-03-18T09:13:21;6.78;;;3.03;;
77220;SDS011;66217;50.004;8.266;2023-03-18T09:15:47;6.18;;;3.10;;
77220;SDS011;66217;50.004;8.266;2023-03-18T09:18:13;7.18;;;3.10;;
77220;SDS011;66217;50.004;8.266;2023-03-18T09:20:39;6.38;;;2.60;;
77220;SDS011;66217;50.004;8.266;2023-03-18T09:23:05;6.65;;;3.33;;
77220;SDS011;66217;50.004;8.266;2023-03-18T09:25:31;6.40;;;2.70;;
77220;SDS011;66217;50.004;8.266;2023-03-18T09:27:57;12.50;;;3.28;;
77220;SDS011;66217;50.004;8.266;2023-03-18T09:30:24;6.65;;;3.05;;
77220;SDS011;66217;50.004;8.266;2023-03-18T09:32:50;5.15;;;2.83;;
77220;SDS011;66217;50.004;8.266;2023-03-18T09:35:15;7.85;;;3.10;;
77220;SDS011;66217;50.004;8.266;2023-03-18T09:37:41;8.10;;;3.08;;
77220;SDS011;66217;50.004;8.266;2023-03-18T09:40:10;6.38;;;2.70;;
77220;SDS011;66217;50.004;8.266;2023-03-18T09:42:58;6.15;;;3.08;;
77220;SDS011;66217;50.004;8.266;2023-03-18T09:48:29;5.85;;;2.78;;
77220;SDS011;66217;50.004;8.266;2023-03-18T09:54:03;7.80;;;2.70;;
77220;SDS011;66217;50.004;8.266;2023-03-18T09:56:33;6.00;;;2.83;;
77220;SDS011;66217;50.004;8.266;2023-03-18T10:01:48;6.30;;;2.90;;
77220;SDS011;66217;50.004;8.266;2023-03-18T10:04:29;8.02;;;2.85;;
77220;SDS011;66217;50.004;8.266;2023-03-18T10:07:05;6.65;;;2.83;;
77220;SDS011;66217;50.004;8.266;2023-03-18T10:09:39;7.93;;;2.47;;
77220;SDS011;66217;50.004;8.266;2023-03-18T10:12:33;6.85;;;2.65;;
77220;SDS011;66217;50.004;8.266;2023-03-18T10:17:39;6.35;;;2.70;;
77220;SDS011;66217;50.004;8.266;2023-03-18T10:23:30;6.18;;;2.63;;
77220;SDS011;66217;50.004;8.266;2023-03-18T10:25:58;8.02;;;3.30;;
77220;SDS011;66217;50.004;8.266;2023-03-18T10:34:18;6.15;;;3.28;;
77220;SDS011;66217;50.004;8.266;2023-03-18T10:39:15;7.30;;;2.70;;
77220;SDS011;66217;50.004;8.266;2023-03-18T10:41:42;6.10;;;2.70;;
77220;SDS011;66217;50.004;8.266;2023-03-18T10:44:31;5.60;;;2.42;;
77220;SDS011;66217;50.004;8.266;2023-03-18T10:47:32;5.25;;;2.53;;
77220;SDS011;66217;50.004;8.266;2023-03-18T10:50:07;5.68;;;2.67;;
77220;SDS011;66217;50.004;8.266;2023-03-18T10:52:59;6.88;;;2.60;;
77220;SDS011;66217;50.004;8.266;2023-03-18T10:55:28;8.05;;;2.53;;
77220;SDS011;66217;50.004;8.266;2023-03-18T10:57:56;4.28;;;2.30;;
77220;SDS011;66217;50.004;8.266;2023-03-18T11:02:54;5.05;;;2.50;;
77220;SDS011;66217;50.004;8.266;2023-03-18T11:05:22;6.40;;;2.60;;
77220;SDS011;66217;50.004;8.266;2023-03-18T11:10:26;4.38;;;2.22;;
77220;SDS011;66217;50.004;8.266;2023-03-18T11:12:57;4.45;;;2.33;;
77220;SDS011;66217;50.004;8.266;2023-03-18T11:15:34;4.25;;;2.10;;
77220;SDS011;66217;50.004;8.266;2023-03-18T11:18:03;5.25;;;2.70;;
77220;SDS011;66217;50.004;8.266;2023-03-18T11:23:17;5.13;;;2.50;;
77220;SDS011;66217;50.004;8.266;2023-03-18T11:25:47;8.27;;;3.08;;
77220;SDS011;66217;50.004;8.266;2023-03-18T11:28:22;7.70;;;2.63;;
77220;SDS011;66217;50.004;8.266;2023-03-18T11:30:52;10.55;;;3.22;;
77220;SDS011;66217;50.004;8.266;2023-03-18T11:33:22;6.03;;;2.95;;
77220;SDS011;66217;50.004;8.266;2023-03-18T11:35:50;4.85;;;2.70;;
77220;SDS011;66217;50.004;8.266;2023-03-18T11:38:24;5.30;;;2.40;;
77220;SDS011;66217;50.004;8.266;2023-03-18T11:41:04;6.13;;;2.88;;
77220;SDS011;66217;50.004;8.266;2023-03-18T11:43:34;9.15;;;2.92;;
77220;SDS011;66217;50.004;8.266;2023-03-18T11:46:04;4.53;;;2.28;;
77220;SDS011;66217;50.004;8.266;2023-03-18T11:48:35;5.28;;;2.60;;
77220;SDS011;66217;50.004;8.266;2023-03-18T11:51:19;5.63;;;2.63;;
77220;SDS011;66217;50.004;8.266;2023-03-18T11:54:12;4.35;;;2.53;;
77220;SDS011;66217;50.004;8.266;2023-03-18T11:59:25;4.90;;;2.67;;
77220;SDS011;66217;50.004;8.266;2023-03-18T12:07:17;5.32;;;2.70;;
77220;SDS011;66217;50.004;8.266;2023-03-18T12:10:01;4.32;;;2.70;;
77220;SDS011;66217;50.004;8.266;2023-03-18T12:18:22;6.53;;;2.50;;
77220;SDS011;66217;50.004;8.266;2023-03-18T12:21:34;5.78;;;2.63;;
77220;SDS011;66217;50.004;8.266;2023-03-18T12:26:44;7.18;;;2.50;;
77220;SDS011;66217;50.004;8.266;2023-03-18T12:29:28;4.18;;;2.33;;
77220;SDS011;66217;50.004;8.266;2023-03-18T12:34:50;6.45;;;2.67;;
77220;SDS011;66217;50.004;8.266;2023-03-18T12:37:27;4.50;;;2.47;;
77220;SDS011;66217;50.004;8.266;2023-03-18T12:45:14;5.00;;;2.20;;
77220;SDS011;66217;50.004;8.266;2023-03-18T12:48:26;4.95;;;2.50;;
77220;SDS011;66217;50.004;8.266;2023-03-18T12:50:45;3.95;;;2.25;;
77220;SDS011;66217;50.004;8.266;2023-03-18T12:53:18;7.60;;;3.33;;
77220;SDS011;66217;50.004;8.266;2023-03-18T12:56:11;5.80;;;2.30;;
77220;SDS011;66217;50.004;8.266;2023-03-18T12:58:42;4.35;;;1.88;;
77220;SDS011;66217;50.004;8.266;2023-03-18T13:01:20;4.78;;;2.05;;
77220;SDS011;66217;50.004;8.266;2023-03-18T13:03:50;5.47;;;2.20;;
77220;SDS011;66217;50.004;8.266;2023-03-18T13:06:23;5.18;;;2.53;;
77220;SDS011;66217;50.004;8.266;2023-03-18T13:12:04;6.43;;;2.53;;
77220;SDS011;66217;50.004;8.266;2023-03-18T13:17:26;5.95;;;2.38;;
77220;SDS011;66217;50.004;8.266;2023-03-18T13:19:58;6.20;;;2.30;;
77220;SDS011;66217;50.004;8.266;2023-03-18T13:33:30;5.18;;;2.33;;
77220;SDS011;66217;50.004;8.266;2023-03-18T13:38:45;8.55;;;2.53;;
77220;SDS011;66217;50.004;8.266;2023-03-18T13:44:14;5.85;;;2.58;;
77220;SDS011;66217;50.004;8.266;2023-03-18T13:46:45;10.80;;;3.30;;
77220;SDS011;66217;50.004;8.266;2023-03-18T13:49:18;7.38;;;2.92;;
77220;SDS011;66217;50.004;8.266;2023-03-18T13:51:47;8.68;;;2.70;;
77220;SDS011;66217;50.004;8.266;2023-03-18T13:54:14;6.55;;;3.05;;
77220;SDS011;66217;50.004;8.266;2023-03-18T13:56:52;6.80;;;3.13;;
77220;SDS011;66217;50.004;8.266;2023-03-18T14:01:57;5.07;;;2.33;;
77220;SDS011;66217;50.004;8.266;2023-03-18T14:04:44;4.85;;;2.70;;
77220;SDS011;66217;50.004;8.266;2023-03-18T14:07:13;13.38;;;2.80;;
77220;SDS011;66217;50.004;8.266;2023-03-18T14:20:15;9.00;;;3.47;;
77220;SDS011;66217;50.004;8.266;2023-03-18T14:22:43;5.72;;;2.80;;
77220;SDS011;66217;50.004;8.266;2023-03-18T14:27:45;10.05;;;3.30;;
77220;SDS011;66217;50.004;8.266;2023-03-18T14:33:00;7.15;;;3.30;;
77220;SDS011;66217;50.004;8.266;2023-03-18T14:38:10;12.07;;;2.95;;
77220;SDS011;66217;50.004;8.266;2023-03-18T14:40:49;4.88;;;2.55;;
77220;SDS011;66217;50.004;8.266;2023-03-18T14:43:23;7.07;;;2.85;;
77220;SDS011;66217;50.004;8.266;2023-03-18T14:45:51;8.25;;;2.85;;
77220;SDS011;66217;50.004;8.266;2023-03-18T14:48:25;7.45;;;3.53;;
77220;SDS011;66217;50.004;8.266;2023-03-18T14:50:53;6.20;;;2.58;;
77220;SDS011;66217;50.004;8.266;2023-03-18T14:55:59;5.85;;;2.35;;
77220;SDS011;66217;50.004;8.266;2023-03-18T14:58:26;9.60;;;2.70;;
77220;SDS011;66217;50.004;8.266;2023-03-18T15:00:53;5.85;;;2.75;;
77220;SDS011;66217;50.004;8.266;2023-03-18T15:03:26;9.15;;;3.20;;
77220;SDS011;66217;50.004;8.266;2023-03-18T15:05:59;5.80;;;2.50;;
77220;SDS011;66217;50.004;8.266;2023-03-18T15:08:34;10.88;;;2.90;;
77220;SDS011;66217;50.004;8.266;2023-03-18T15:11:02;4.93;;;2.30;;
77220;SDS011;66217;50.004;8.266;2023-03-18T15:13:30;6.93;;;2.40;;
77220;SDS011;66217;50.004;8.266;2023-03-18T15:15:55;5.88;;;2.20;;
77220;SDS011;66217;50.004;8.266;2023-03-18T15:18:32;7.03;;;2.50;;
77220;SDS011;66217;50.004;8.266;2023-03-18T15:21:33;9.27;;;2.83;;
77220;SDS011;66217;50.004;8.266;2023-03-18T15:26:27;4.60;;;2.35;;
77220;SDS011;66217;50.004;8.266;2023-03-18T15:29:23;3.40;;;2.00;;
77220;SDS011;66217;50.004;8.266;2023-03-18T15:31:50;6.25;;;2.50;;
77220;SDS011;66217;50.004;8.266;2023-03-18T15:34:21;5.57;;;2.60;;
77220;SDS011;66217;50.004;8.266;2023-03-18T15:36:52;9.80;;;3.00;;
77220;SDS011;66217;50.004;8.266;2023-03-18T15:41:54;6.15;;;2.00;;
77220;SDS011;66217;50.004;8.266;2023-03-18T15:47:07;4.43;;;1.92;;
77220;SDS011;66217;50.004;8.266;2023-03-18T15:52:07;4.85;;;1.85;;
77220;SDS011;66217;50.004;8.266;2023-03-18T15:54:37;6.28;;;2.00;;
77220;SDS011;66217;50.004;8.266;2023-03-18T15:57:19;4.22;;;1.85;;
77220;SDS011;66217;50.004;8.266;2023-03-18T15:59:57;6.68;;;1.90;;
77220;SDS011;66217;50.004;8.266;2023-03-18T16:02:22;4.72;;;1.80;;
77220;SDS011;66217;50.004;8.266;2023-03-18T16:04:48;5.03;;;1.65;;
77220;SDS011;66217;50.004;8.266;2023-03-18T16:07:18;4.53;;;1.90;;
77220;SDS011;66217;50.004;8.266;2023-03-18T16:09:46;5.90;;;2.15;;
77220;SDS011;66217;50.004;8.266;2023-03-18T16:12:16;3.83;;;1.88;;
77220;SDS011;66217;50.004;8.266;2023-03-18T16:14:43;7.03;;;2.50;;
77220;SDS011;66217;50.004;8.266;2023-03-18T16:17:12;7.50;;;3.42;;
77220;SDS011;66217;50.004;8.266;2023-03-18T16:19:38;7.40;;;2.25;;
77220;SDS011;66217;50.004;8.266;2023-03-18T16:22:03;4.07;;;1.98;;
77220;SDS011;66217;50.004;8.266;2023-03-18T16:24:30;7.15;;;3.42;;
77220;SDS011;66217;50.004;8.266;2023-03-18T16:26:55;6.90;;;2.30;;
77220;SDS011;66217;50.004;8.266;2023-03-18T16:29:31;4.97;;;2.10;;
77220;SDS011;66217;50.004;8.266;2023-03-18T16:32:01;3.42;;;1.80;;
77220;SDS011;66217;50.004;8.266;2023-03-18T16:34:26;5.13;;;2.33;;
77220;SDS011;66217;50.004;8.266;2023-03-18T16:36:52;8.80;;;2.25;;
77220;SDS011;66217;50.004;8.266;2023-03-18T16:39:19;6.60;;;2.20;;
77220;SDS011;66217;50.004;8.266;2023-03-18T16:41:46;7.35;;;2.50;;
77220;SDS011;66217;50.004;8.266;2023-03-18T16:44:12;4.68;;;2.80;;
77220;SDS011;66217;50.004;8.266;2023-03-18T16:46:40;7.63;;;3.50;;
77220;SDS011;66217;50.004;8.266;2023-03-18T16:49:12;8.60;;;2.88;;